createdAt,value
2023-09-23T00:00:20.177Z,45.600000
2023-09-23T00:05:22.776Z,45.357143
2023-09-23T00:10:25.396Z,46.733333
2023-09-23T00:15:27.944Z,45.533333
2023-09-23T00:20:30.876Z,44.333333
2023-09-23T00:25:33.484Z,44.400000
2023-09-23T00:30:15.797Z,44.933333
2023-09-23T00:35:18.288Z,45.266667
2023-09-23T00:40:22.018Z,45.866667
2023-09-23T00:45:23.639Z,47.428571
2023-09-23T00:50:26.445Z,46.600000
2023-09-23T00:55:29.077Z,47.400000
2023-09-23T01:00:32.134Z,48.666667
2023-09-23T01:05:35.616Z,48.400000
2023-09-23T01:10:17.892Z,50.133333
2023-09-23T01:15:20.179Z,50.733333
2023-09-23T01:20:23.352Z,53.142857
2023-09-23T01:25:26.090Z,55.333333
2023-09-23T01:30:28.517Z,58.000000
2023-09-23T01:35:30.794Z,60.000000
2023-09-23T01:40:33.607Z,59.733333
2023-09-23T01:45:15.963Z,60.800000
2023-09-23T01:50:19.396Z,62.533333
2023-09-23T01:55:21.622Z,62.533333
2023-09-23T02:00:24.363Z,61.642857
2023-09-23T02:05:26.756Z,63.200000
2023-09-23T02:10:29.194Z,65.866667
2023-09-23T02:15:31.605Z,63.933333
2023-09-23T02:20:34.590Z,60.333333
2023-09-23T02:25:16.739Z,61.266667
2023-09-23T02:30:19.115Z,60.133333
2023-09-23T02:35:21.874Z,60.866667
2023-09-23T02:40:24.379Z,62.928571
2023-09-23T02:45:26.846Z,63.000000
2023-09-23T02:50:29.372Z,63.333333
2023-09-23T02:55:32.696Z,62.333333
2023-09-23T03:00:34.561Z,64.000000
2023-09-23T03:05:17.090Z,66.333333
2023-09-23T03:10:19.567Z,68.133333
2023-09-23T03:15:22.531Z,69.857143
2023-09-23T03:20:25.552Z,70.933333
2023-09-23T03:25:28.003Z,71.600000
2023-09-23T03:30:30.370Z,72.000000
2023-09-23T03:35:32.935Z,71.333333
2023-09-23T03:40:36.135Z,71.000000
2023-09-23T03:45:18.433Z,71.000000
2023-09-23T03:50:20.764Z,71.000000
2023-09-23T03:55:23.792Z,71.000000
2023-09-23T04:00:26.798Z,71.466667
2023-09-23T04:05:29.529Z,72.400000
2023-09-23T04:10:32.076Z,72.000000
2023-09-23T04:15:34.445Z,72.066667
2023-09-23T04:20:18.129Z,72.000000
2023-09-23T04:25:19.240Z,72.000000
2023-09-23T04:30:21.744Z,72.000000
2023-09-23T04:35:24.214Z,70.285714
2023-09-23T04:40:26.580Z,70.000000
2023-09-23T04:45:29.075Z,70.866667
2023-09-23T04:50:31.580Z,71.000000
2023-09-23T04:55:33.929Z,71.533333
2023-09-23T05:00:16.419Z,74.266667
2023-09-23T05:05:19.167Z,75.200000
2023-09-23T05:10:21.539Z,75.600000
2023-09-23T05:15:23.940Z,76.357143
2023-09-23T05:20:27.502Z,76.800000
2023-09-23T05:25:29.666Z,76.000000
2023-09-23T05:30:32.478Z,76.333333
2023-09-23T05:35:35.642Z,77.533333
2023-09-23T05:40:17.323Z,79.000000
2023-09-23T05:45:20.030Z,78.800000
2023-09-23T05:50:23.451Z,77.285714
2023-09-23T05:55:26.039Z,77.000000
2023-09-23T06:00:28.532Z,77.400000
2023-09-23T06:05:30.946Z,78.200000
2023-09-23T06:10:34.160Z,78.000000
2023-09-23T06:15:36.054Z,78.000000
2023-09-23T06:20:18.809Z,77.533333
2023-09-23T06:25:21.688Z,77.533333
2023-09-23T06:30:25.567Z,78.642857
2023-09-23T06:35:28.204Z,79.533333
2023-09-23T06:40:30.492Z,81.733333
2023-09-23T06:45:33.726Z,84.733333
2023-09-23T06:50:35.740Z,86.266667
2023-09-23T06:55:18.319Z,87.400000
2023-09-23T07:00:21.079Z,88.400000
2023-09-23T07:05:24.266Z,89.642857
2023-09-23T07:10:26.188Z,90.000000
2023-09-23T07:15:29.316Z,90.800000
2023-09-23T07:20:33.096Z,91.000000
2023-09-23T07:25:34.431Z,90.933333
2023-09-23T07:30:18.716Z,90.733333
2023-09-23T07:35:20.564Z,91.666667
2023-09-23T07:40:22.789Z,92.000000
2023-09-23T07:45:37.536Z,92.000000
2023-09-23T07:50:29.083Z,92.000000
2023-09-23T07:55:31.471Z,92.533333
2023-09-23T08:00:33.260Z,92.933333
2023-09-23T08:05:36.041Z,93.000000
2023-09-23T08:10:18.165Z,93.000000
2023-09-23T08:15:20.522Z,94.000000
2023-09-23T08:20:23.291Z,94.000000
2023-09-23T08:25:26.407Z,94.000000
2023-09-23T08:30:29.070Z,95.000000
2023-09-23T08:35:33.586Z,95.000000
2023-09-23T08:40:34.024Z,95.000000
2023-09-23T08:45:16.212Z,95.000000
2023-09-23T08:50:18.739Z,95.000000
2023-09-23T08:55:21.364Z,95.000000
2023-09-23T09:00:23.874Z,95.000000
2023-09-23T09:05:26.786Z,95.266667
2023-09-23T09:10:30.258Z,95.800000
2023-09-23T09:15:32.031Z,96.000000
2023-09-23T09:20:34.753Z,96.000000
2023-09-23T09:25:16.905Z,96.000000
2023-09-23T09:30:19.702Z,95.666667
2023-09-23T09:35:22.696Z,94.428571
2023-09-23T09:40:25.100Z,94.000000
2023-09-23T09:45:27.763Z,94.000000
2023-09-23T09:50:30.295Z,94.000000
2023-09-23T09:55:32.559Z,94.000000
2023-09-23T10:00:35.432Z,94.000000
2023-09-23T10:05:18.186Z,94.000000
2023-09-23T10:10:20.962Z,94.000000
2023-09-23T10:15:24.212Z,94.000000
2023-09-23T10:20:27.040Z,94.000000
2023-09-23T10:25:29.406Z,94.000000
2023-09-23T10:30:31.869Z,94.000000
2023-09-23T10:35:35.668Z,94.066667
2023-09-23T10:40:17.020Z,94.000000
2023-09-23T10:45:19.361Z,94.000000
2023-09-23T10:50:22.242Z,94.285714
2023-09-23T10:55:25.242Z,94.000000
2023-09-23T11:00:28.059Z,94.000000
2023-09-23T11:05:30.704Z,94.000000
2023-09-23T11:10:33.155Z,94.000000
2023-09-23T11:15:15.944Z,94.000000
2023-09-23T11:20:19.101Z,93.200000
2023-09-23T11:25:21.932Z,93.000000
2023-09-23T11:30:24.886Z,93.000000
2023-09-23T11:35:27.974Z,93.000000
2023-09-23T11:40:30.631Z,93.133333
2023-09-23T11:45:34.240Z,94.000000
2023-09-23T11:50:15.912Z,94.000000
2023-09-23T11:55:18.680Z,94.000000
2023-09-23T12:00:22.212Z,94.000000
2023-09-23T12:05:24.288Z,94.857143
2023-09-23T12:10:26.817Z,95.000000
2023-09-23T12:15:29.848Z,95.000000
2023-09-23T12:20:32.949Z,95.066667
2023-09-23T12:25:35.579Z,95.933333
2023-09-23T12:30:17.898Z,96.000000
2023-09-23T12:35:20.625Z,96.000000
2023-09-23T12:40:22.936Z,96.000000
2023-09-23T12:45:26.927Z,96.000000
2023-09-23T12:50:28.358Z,96.000000
2023-09-23T12:55:30.711Z,96.000000
2023-09-23T13:00:33.602Z,96.733333
2023-09-23T13:05:16.234Z,97.000000
2023-09-23T13:10:19.001Z,97.000000
2023-09-23T13:15:21.400Z,97.000000
2023-09-23T13:20:24.833Z,97.000000
2023-09-23T13:25:27.496Z,97.000000
2023-09-23T13:30:30.566Z,97.000000
2023-09-23T13:35:34.159Z,97.000000
2023-09-23T13:40:35.776Z,97.000000
2023-09-23T13:45:18.041Z,97.000000
2023-09-23T13:50:21.125Z,97.000000
2023-09-23T13:55:24.367Z,97.000000
2023-09-23T14:00:27.072Z,97.000000
2023-09-23T14:05:29.809Z,97.000000
2023-09-23T14:10:33.066Z,97.000000
2023-09-23T14:15:36.088Z,97.000000
2023-09-23T14:20:18.469Z,96.400000
2023-09-23T14:25:22.321Z,95.928571
2023-09-23T14:30:25.306Z,94.266667
2023-09-23T14:35:28.317Z,88.000000
2023-09-23T14:40:31.426Z,81.933333
2023-09-23T14:45:35.147Z,78.533333
2023-09-23T14:50:17.548Z,77.000000
2023-09-23T14:55:20.021Z,76.600000
2023-09-23T15:00:23.412Z,76.285714
2023-09-23T15:05:26.832Z,77.200000
2023-09-23T15:10:29.992Z,77.266667
2023-09-23T15:15:33.132Z,77.266667
2023-09-23T15:20:16.257Z,76.266667
2023-09-23T15:25:19.636Z,75.400000
2023-09-23T15:30:22.296Z,74.428571
2023-09-23T15:35:30.354Z,74.733333
2023-09-23T15:40:33.600Z,75.933333
2023-09-23T15:45:16.562Z,75.000000
2023-09-23T15:50:20.316Z,73.600000
2023-09-23T15:55:22.279Z,73.714286
2023-09-23T16:00:24.515Z,70.000000
2023-09-23T16:05:27.128Z,69.200000
2023-09-23T16:10:30.240Z,71.866667
2023-09-23T16:15:33.463Z,71.600000
2023-09-23T16:20:36.024Z,69.000000
2023-09-23T16:25:18.413Z,69.466667
2023-09-23T16:30:21.577Z,68.066667
2023-09-23T16:35:24.742Z,67.714286
2023-09-23T16:40:27.345Z,65.866667
2023-09-23T16:45:30.488Z,64.600000
2023-09-23T16:50:33.981Z,62.200000
2023-09-23T16:55:18.878Z,62.800000
2023-09-23T17:00:18.927Z,63.400000
2023-09-23T17:05:21.356Z,62.133333
2023-09-23T17:10:24.129Z,58.642857
2023-09-23T17:15:26.651Z,58.533333
2023-09-23T17:20:28.853Z,56.333333
2023-09-23T17:25:31.322Z,57.400000
2023-09-23T17:30:34.301Z,57.466667
2023-09-23T17:35:16.975Z,52.400000
2023-09-23T17:40:18.947Z,49.266667
2023-09-23T17:45:21.518Z,48.200000
2023-09-23T17:50:24.711Z,49.142857
2023-09-23T17:55:27.300Z,51.466667
2023-09-23T18:00:30.123Z,50.333333
2023-09-23T18:05:32.786Z,49.800000
2023-09-23T18:10:36.585Z,48.066667
2023-09-23T18:15:17.777Z,45.066667
2023-09-23T18:20:20.440Z,42.733333
2023-09-23T18:25:22.713Z,45.142857
2023-09-23T18:30:25.121Z,41.000000
2023-09-23T18:35:28.137Z,41.200000
2023-09-23T18:40:30.527Z,40.000000
2023-09-23T18:45:33.310Z,38.866667
2023-09-23T18:50:16.054Z,37.733333
2023-09-23T18:55:19.037Z,36.666667
2023-09-23T19:00:22.347Z,36.866667
2023-09-23T19:05:24.921Z,38.857143
2023-09-23T19:10:27.541Z,38.066667
2023-09-23T19:15:30.339Z,37.533333
2023-09-23T19:20:33.474Z,37.733333
2023-09-23T19:25:15.920Z,38.466667
2023-09-23T19:30:19.067Z,39.066667
2023-09-23T19:35:21.841Z,40.466667
2023-09-23T19:40:24.370Z,37.642857
2023-09-23T19:45:27.666Z,37.400000
2023-09-23T19:50:30.309Z,41.866667
2023-09-23T19:55:33.138Z,43.133333
2023-09-23T20:00:36.316Z,43.933333
2023-09-23T20:05:18.630Z,45.600000
2023-09-23T20:10:21.657Z,46.000000
2023-09-23T20:15:24.370Z,45.071429
2023-09-23T20:20:27.671Z,44.533333
2023-09-23T20:25:30.141Z,43.800000
2023-09-23T20:30:35.702Z,42.800000
2023-09-23T20:35:35.904Z,42.733333
2023-09-23T20:40:17.945Z,42.933333
2023-09-23T20:45:20.725Z,42.600000
2023-09-23T20:50:23.485Z,42.357143
2023-09-23T20:55:27.256Z,40.933333
2023-09-23T21:00:28.745Z,40.666667
2023-09-23T21:05:32.908Z,40.733333
2023-09-23T21:10:35.580Z,39.733333
2023-09-23T21:15:18.722Z,38.000000
2023-09-23T21:20:20.218Z,38.066667
2023-09-23T21:25:23.740Z,38.214286
2023-09-23T21:30:26.422Z,38.133333
2023-09-23T21:35:28.821Z,36.400000
2023-09-23T21:40:32.560Z,35.400000
2023-09-23T21:45:35.582Z,35.600000
2023-09-23T21:50:18.657Z,35.533333
2023-09-23T21:55:21.810Z,35.533333
2023-09-23T22:00:24.435Z,34.071429
2023-09-23T22:05:27.455Z,34.400000
2023-09-23T22:10:29.848Z,34.200000
2023-09-23T22:15:33.551Z,33.800000
2023-09-23T22:20:16.393Z,34.066667
2023-09-23T22:25:19.200Z,33.800000
2023-09-23T22:30:21.822Z,31.866667
2023-09-23T22:35:24.442Z,31.285714
2023-09-23T22:40:27.883Z,31.333333
2023-09-23T22:45:38.954Z,30.466667
2023-09-23T22:50:33.670Z,31.266667
2023-09-23T22:55:16.130Z,29.866667
2023-09-23T23:00:19.022Z,29.533333
2023-09-23T23:05:22.221Z,29.466667
2023-09-23T23:10:24.363Z,30.428571
2023-09-23T23:15:27.818Z,31.466667
2023-09-23T23:20:30.856Z,31.533333
2023-09-23T23:25:33.412Z,31.133333
2023-09-23T23:30:16.090Z,31.466667
2023-09-23T23:35:19.621Z,31.266667
2023-09-23T23:40:22.622Z,32.642857
2023-09-23T23:45:25.972Z,31.266667
2023-09-23T23:50:28.748Z,32.466667
2023-09-23T23:55:31.555Z,33.133333
